sensor_id;sensor_type;location;lat;lon;timestamp;P1;durP1;ratioP1;P2;durP2;ratioP2
22907;SDS011;11620;50.050;8.690;2023-07-09T00:00:48;0.30;;;0.30;;
22907;SDS011;11620;50.050;8.690;2023-07-09T00:03:35;0.30;;;0.30;;
22907;SDS011;11620;50.050;8.690;2023-07-09T00:06:21;0.30;;;0.30;;
22907;SDS011;11620;50.050;8.690;2023-07-09T00:09:18;0.30;;;0.30;;
22907;SDS011;11620;50.050;8.690;2023-07-09T00:12:09;0.30;;;0.30;;
22907;SDS011;11620;50.050;8.690;2023-07-09T00:15:01;0.30;;;0.30;;
22907;SDS011;11620;50.050;8.690;2023-07-09T00:17:47;0.30;;;0.30;;
22907;SDS011;11620;50.050;8.690;2023-07-09T00:20:34;0.40;;;0.40;;
22907;SDS011;11620;50.050;8.690;2023-07-09T00:23:20;0.30;;;0.30;;
22907;SDS011;11620;50.050;8.690;2023-07-09T00:26:16;0.30;;;0.30;;
22907;SDS011;11620;50.050;8.690;2023-07-09T00:29:10;0.35;;;0.35;;
22907;SDS011;11620;50.050;8.690;2023-07-09T00:31:56;0.35;;;0.35;;
22907;SDS011;11620;50.050;8.690;2023-07-09T00:34:43;0.40;;;0.40;;
22907;SDS011;11620;50.050;8.690;2023-07-09T00:37:34;0.30;;;0.30;;
22907;SDS011;11620;50.050;8.690;2023-07-09T00:40:21;0.30;;;0.30;;
22907;SDS011;11620;50.050;8.690;2023-07-09T00:43:10;0.30;;;0.30;;
22907;SDS011;11620;50.050;8.690;2023-07-09T00:49:07;0.40;;;0.40;;
22907;SDS011;11620;50.050;8.690;2023-07-09T00:51:56;0.40;;;0.40;;
22907;SDS011;11620;50.050;8.690;2023-07-09T00:54:47;0.30;;;0.30;;
22907;SDS011;11620;50.050;8.690;2023-07-09T00:57:36;0.40;;;0.40;;
22907;SDS011;11620;50.050;8.690;2023-07-09T01:00:27;0.35;;;0.35;;
22907;SDS011;11620;50.050;8.690;2023-07-09T01:03:29;0.30;;;0.30;;
22907;SDS011;11620;50.050;8.690;2023-07-09T01:06:23;0.30;;;0.30;;
22907;SDS011;11620;50.050;8.690;2023-07-09T01:09:29;0.40;;;0.40;;
22907;SDS011;11620;50.050;8.690;2023-07-09T01:12:17;0.30;;;0.30;;
22907;SDS011;11620;50.050;8.690;2023-07-09T01:15:06;0.20;;;0.20;;
22907;SDS011;11620;50.050;8.690;2023-07-09T01:17:53;0.30;;;0.30;;
22907;SDS011;11620;50.050;8.690;2023-07-09T01:20:40;0.20;;;0.20;;
22907;SDS011;11620;50.050;8.690;2023-07-09T01:23:27;0.30;;;0.30;;
22907;SDS011;11620;50.050;8.690;2023-07-09T01:26:15;0.30;;;0.30;;
22907;SDS011;11620;50.050;8.690;2023-07-09T01:29:06;0.38;;;0.38;;
22907;SDS011;11620;50.050;8.690;2023-07-09T01:31:53;0.30;;;0.30;;
22907;SDS011;11620;50.050;8.690;2023-07-09T01:34:41;0.40;;;0.40;;
22907;SDS011;11620;50.050;8.690;2023-07-09T01:37:28;0.30;;;0.30;;
22907;SDS011;11620;50.050;8.690;2023-07-09T01:40:16;0.25;;;0.25;;
22907;SDS011;11620;50.050;8.690;2023-07-09T01:43:04;0.32;;;0.32;;
22907;SDS011;11620;50.050;8.690;2023-07-09T01:45:54;0.40;;;0.40;;
22907;SDS011;11620;50.050;8.690;2023-07-09T01:48:43;0.30;;;0.30;;
22907;SDS011;11620;50.050;8.690;2023-07-09T01:51:30;0.35;;;0.35;;
22907;SDS011;11620;50.050;8.690;2023-07-09T01:54:16;0.20;;;0.20;;
22907;SDS011;11620;50.050;8.690;2023-07-09T01:57:22;0.30;;;0.30;;
22907;SDS011;11620;50.050;8.690;2023-07-09T02:00:10;0.30;;;0.30;;
22907;SDS011;11620;50.050;8.690;2023-07-09T02:02:59;0.30;;;0.30;;
22907;SDS011;11620;50.050;8.690;2023-07-09T02:05:47;0.40;;;0.40;;
22907;SDS011;11620;50.050;8.690;2023-07-09T02:08:33;0.40;;;0.40;;
22907;SDS011;11620;50.050;8.690;2023-07-09T02:11:20;0.30;;;0.30;;
22907;SDS011;11620;50.050;8.690;2023-07-09T02:14:06;0.25;;;0.25;;
22907;SDS011;11620;50.050;8.690;2023-07-09T02:16:53;0.30;;;0.30;;
22907;SDS011;11620;50.050;8.690;2023-07-09T02:19:39;0.20;;;0.20;;
22907;SDS011;11620;50.050;8.690;2023-07-09T02:22:25;0.32;;;0.32;;
22907;SDS011;11620;50.050;8.690;2023-07-09T02:25:12;0.30;;;0.30;;
22907;SDS011;11620;50.050;8.690;2023-07-09T02:27:58;0.30;;;0.30;;
22907;SDS011;11620;50.050;8.690;2023-07-09T02:30:45;0.40;;;0.40;;
22907;SDS011;11620;50.050;8.690;2023-07-09T02:33:31;0.30;;;0.30;;
22907;SDS011;11620;50.050;8.690;2023-07-09T02:36:18;0.30;;;0.30;;
22907;SDS011;11620;50.050;8.690;2023-07-09T02:39:05;0.25;;;0.25;;
22907;SDS011;11620;50.050;8.690;2023-07-09T02:41:51;0.50;;;0.50;;
22907;SDS011;11620;50.050;8.690;2023-07-09T02:44:38;0.30;;;0.30;;
22907;SDS011;11620;50.050;8.690;2023-07-09T02:47:25;0.35;;;0.35;;
22907;SDS011;11620;50.050;8.690;2023-07-09T02:50:11;0.28;;;0.28;;
22907;SDS011;11620;50.050;8.690;2023-07-09T02:52:58;0.30;;;0.30;;
22907;SDS011;11620;50.050;8.690;2023-07-09T02:55:44;0.40;;;0.40;;
22907;SDS011;11620;50.050;8.690;2023-07-09T02:58:30;0.22;;;0.22;;
22907;SDS011;11620;50.050;8.690;2023-07-09T03:01:17;0.40;;;0.40;;
22907;SDS011;11620;50.050;8.690;2023-07-09T03:04:03;0.40;;;0.40;;
22907;SDS011;11620;50.050;8.690;2023-07-09T03:06:49;0.40;;;0.40;;
22907;SDS011;11620;50.050;8.690;2023-07-09T03:09:36;0.40;;;0.40;;
22907;SDS011;11620;50.050;8.690;2023-07-09T03:12:22;0.40;;;0.40;;
22907;SDS011;11620;50.050;8.690;2023-07-09T03:15:08;0.30;;;0.30;;
22907;SDS011;11620;50.050;8.690;2023-07-09T03:17:55;0.30;;;0.30;;
22907;SDS011;11620;50.050;8.690;2023-07-09T03:20:41;0.30;;;0.30;;
22907;SDS011;11620;50.050;8.690;2023-07-09T03:23:28;0.30;;;0.30;;
22907;SDS011;11620;50.050;8.690;2023-07-09T03:26:14;0.40;;;0.40;;
22907;SDS011;11620;50.050;8.690;2023-07-09T03:29:00;0.40;;;0.40;;
22907;SDS011;11620;50.050;8.690;2023-07-09T03:31:47;0.30;;;0.30;;
22907;SDS011;11620;50.050;8.690;2023-07-09T03:34:35;0.40;;;0.40;;
22907;SDS011;11620;50.050;8.690;2023-07-09T03:37:21;0.40;;;0.40;;
22907;SDS011;11620;50.050;8.690;2023-07-09T03:40:09;0.40;;;0.40;;
22907;SDS011;11620;50.050;8.690;2023-07-09T03:42:56;0.40;;;0.40;;
22907;SDS011;11620;50.050;8.690;2023-07-09T03:45:43;0.40;;;0.40;;
22907;SDS011;11620;50.050;8.690;2023-07-09T03:48:30;0.40;;;0.40;;
22907;SDS011;11620;50.050;8.690;2023-07-09T03:51:16;0.40;;;0.40;;
22907;SDS011;11620;50.050;8.690;2023-07-09T03:54:03;0.40;;;0.40;;
22907;SDS011;11620;50.050;8.690;2023-07-09T03:56:49;0.40;;;0.40;;
22907;SDS011;11620;50.050;8.690;2023-07-09T03:59:36;0.30;;;0.30;;
22907;SDS011;11620;50.050;8.690;2023-07-09T04:02:23;0.30;;;0.30;;
22907;SDS011;11620;50.050;8.690;2023-07-09T04:05:09;0.40;;;0.40;;
22907;SDS011;11620;50.050;8.690;2023-07-09T04:07:56;0.20;;;0.20;;
22907;SDS011;11620;50.050;8.690;2023-07-09T04:10:42;0.40;;;0.40;;
22907;SDS011;11620;50.050;8.690;2023-07-09T04:13:29;0.40;;;0.40;;
22907;SDS011;11620;50.050;8.690;2023-07-09T04:16:15;0.30;;;0.30;;
22907;SDS011;11620;50.050;8.690;2023-07-09T04:19:01;0.40;;;0.40;;
22907;SDS011;11620;50.050;8.690;2023-07-09T04:21:48;0.20;;;0.20;;
22907;SDS011;11620;50.050;8.690;2023-07-09T04:24:34;0.50;;;0.50;;
22907;SDS011;11620;50.050;8.690;2023-07-09T04:27:20;0.40;;;0.40;;
22907;SDS011;11620;50.050;8.690;2023-07-09T04:30:11;0.40;;;0.40;;
22907;SDS011;11620;50.050;8.690;2023-07-09T04:33:00;0.40;;;0.40;;
22907;SDS011;11620;50.050;8.690;2023-07-09T04:35:46;0.38;;;0.38;;
22907;SDS011;11620;50.050;8.690;2023-07-09T04:38:33;0.40;;;0.40;;
22907;SDS011;11620;50.050;8.690;2023-07-09T04:41:20;0.50;;;0.50;;
22907;SDS011;11620;50.050;8.690;2023-07-09T04:44:06;0.40;;;0.40;;
22907;SDS011;11620;50.050;8.690;2023-07-09T04:46:52;0.30;;;0.30;;
22907;SDS011;11620;50.050;8.690;2023-07-09T04:49:39;0.40;;;0.40;;
22907;SDS011;11620;50.050;8.690;2023-07-09T04:52:25;0.47;;;0.47;;
22907;SDS011;11620;50.050;8.690;2023-07-09T04:55:12;0.40;;;0.40;;
22907;SDS011;11620;50.050;8.690;2023-07-09T04:57:58;0.50;;;0.50;;
22907;SDS011;11620;50.050;8.690;2023-07-09T05:00:45;0.38;;;0.38;;
22907;SDS011;11620;50.050;8.690;2023-07-09T05:03:31;0.40;;;0.40;;
22907;SDS011;11620;50.050;8.690;2023-07-09T05:06:17;0.40;;;0.40;;
22907;SDS011;11620;50.050;8.690;2023-07-09T05:09:04;0.40;;;0.40;;
22907;SDS011;11620;50.050;8.690;2023-07-09T05:11:51;0.38;;;0.38;;
22907;SDS011;11620;50.050;8.690;2023-07-09T05:14:37;0.50;;;0.50;;
22907;SDS011;11620;50.050;8.690;2023-07-09T05:17:24;0.40;;;0.40;;
22907;SDS011;11620;50.050;8.690;2023-07-09T05:20:10;0.40;;;0.40;;
22907;SDS011;11620;50.050;8.690;2023-07-09T05:22:57;0.35;;;0.35;;
22907;SDS011;11620;50.050;8.690;2023-07-09T05:25:43;0.30;;;0.30;;
22907;SDS011;11620;50.050;8.690;2023-07-09T05:28:30;0.45;;;0.45;;
22907;SDS011;11620;50.050;8.690;2023-07-09T05:31:18;0.40;;;0.40;;
22907;SDS011;11620;50.050;8.690;2023-07-09T05:34:04;0.30;;;0.30;;
22907;SDS011;11620;50.050;8.690;2023-07-09T05:36:51;0.43;;;0.43;;
22907;SDS011;11620;50.050;8.690;2023-07-09T05:39:37;0.30;;;0.30;;
22907;SDS011;11620;50.050;8.690;2023-07-09T05:42:23;0.40;;;0.40;;
22907;SDS011;11620;50.050;8.690;2023-07-09T05:45:10;0.50;;;0.50;;
22907;SDS011;11620;50.050;8.690;2023-07-09T05:47:58;0.40;;;0.40;;
22907;SDS011;11620;50.050;8.690;2023-07-09T05:50:45;0.40;;;0.40;;
22907;SDS011;11620;50.050;8.690;2023-07-09T05:53:31;0.50;;;0.50;;
22907;SDS011;11620;50.050;8.690;2023-07-09T05:56:19;0.30;;;0.30;;
22907;SDS011;11620;50.050;8.690;2023-07-09T05:59:05;0.50;;;0.50;;
22907;SDS011;11620;50.050;8.690;2023-07-09T06:01:51;0.40;;;0.40;;
22907;SDS011;11620;50.050;8.690;2023-07-09T06:04:38;0.43;;;0.43;;
22907;SDS011;11620;50.050;8.690;2023-07-09T06:07:24;0.50;;;0.50;;
22907;SDS011;11620;50.050;8.690;2023-07-09T06:10:11;0.45;;;0.45;;
22907;SDS011;11620;50.050;8.690;2023-07-09T06:12:57;0.40;;;0.40;;
22907;SDS011;11620;50.050;8.690;2023-07-09T06:15:43;0.50;;;0.50;;
22907;SDS011;11620;50.050;8.690;2023-07-09T06:18:30;0.60;;;0.60;;
22907;SDS011;11620;50.050;8.690;2023-07-09T06:21:16;0.65;;;0.65;;
22907;SDS011;11620;50.050;8.690;2023-07-09T06:24:03;0.50;;;0.50;;
22907;SDS011;11620;50.050;8.690;2023-07-09T06:26:49;0.70;;;0.70;;
22907;SDS011;11620;50.050;8.690;2023-07-09T06:29:36;0.60;;;0.60;;
22907;SDS011;11620;50.050;8.690;2023-07-09T06:32:22;0.60;;;0.60;;
22907;SDS011;11620;50.050;8.690;2023-07-09T06:35:08;0.60;;;0.60;;
22907;SDS011;11620;50.050;8.690;2023-07-09T06:37:55;0.52;;;0.52;;
22907;SDS011;11620;50.050;8.690;2023-07-09T06:40:44;0.40;;;0.40;;
22907;SDS011;11620;50.050;8.690;2023-07-09T06:43:34;0.70;;;0.70;;
22907;SDS011;11620;50.050;8.690;2023-07-09T06:46:24;0.50;;;0.50;;
22907;SDS011;11620;50.050;8.690;2023-07-09T06:49:10;0.60;;;0.60;;
22907;SDS011;11620;50.050;8.690;2023-07-09T06:51:57;0.63;;;0.63;;
22907;SDS011;11620;50.050;8.690;2023-07-09T06:54:43;0.47;;;0.47;;
22907;SDS011;11620;50.050;8.690;2023-07-09T06:57:30;0.50;;;0.50;;
22907;SDS011;11620;50.050;8.690;2023-07-09T07:00:16;0.60;;;0.60;;
22907;SDS011;11620;50.050;8.690;2023-07-09T07:03:03;0.60;;;0.60;;
22907;SDS011;11620;50.050;8.690;2023-07-09T07:05:52;0.65;;;0.65;;
22907;SDS011;11620;50.050;8.690;2023-07-09T07:08:43;0.65;;;0.65;;
22907;SDS011;11620;50.050;8.690;2023-07-09T07:11:32;0.57;;;0.57;;
22907;SDS011;11620;50.050;8.690;2023-07-09T07:14:18;0.50;;;0.50;;
22907;SDS011;11620;50.050;8.690;2023-07-09T07:17:05;0.70;;;0.70;;
22907;SDS011;11620;50.050;8.690;2023-07-09T07:19:51;0.68;;;0.68;;
22907;SDS011;11620;50.050;8.690;2023-07-09T07:22:38;0.60;;;0.60;;
22907;SDS011;11620;50.050;8.690;2023-07-09T07:25:25;0.60;;;0.60;;
22907;SDS011;11620;50.050;8.690;2023-07-09T07:28:11;0.60;;;0.60;;
22907;SDS011;11620;50.050;8.690;2023-07-09T07:31:02;0.68;;;0.68;;
22907;SDS011;11620;50.050;8.690;2023-07-09T07:33:49;0.70;;;0.70;;
22907;SDS011;11620;50.050;8.690;2023-07-09T07:36:37;0.60;;;0.60;;
22907;SDS011;11620;50.050;8.690;2023-07-09T07:39:23;0.73;;;0.73;;
22907;SDS011;11620;50.050;8.690;2023-07-09T07:42:09;0.60;;;0.60;;
22907;SDS011;11620;50.050;8.690;2023-07-09T07:44:56;0.60;;;0.60;;
22907;SDS011;11620;50.050;8.690;2023-07-09T07:47:42;0.45;;;0.45;;
22907;SDS011;11620;50.050;8.690;2023-07-09T07:50:29;0.50;;;0.50;;
22907;SDS011;11620;50.050;8.690;2023-07-09T07:53:15;0.45;;;0.45;;
22907;SDS011;11620;50.050;8.690;2023-07-09T07:56:02;0.63;;;0.63;;
22907;SDS011;11620;50.050;8.690;2023-07-09T07:58:48;0.52;;;0.52;;
22907;SDS011;11620;50.050;8.690;2023-07-09T08:01:35;0.60;;;0.60;;
22907;SDS011;11620;50.050;8.690;2023-07-09T08:04:21;0.60;;;0.60;;
22907;SDS011;11620;50.050;8.690;2023-07-09T08:07:08;0.63;;;0.63;;
22907;SDS011;11620;50.050;8.690;2023-07-09T08:09:55;0.60;;;0.60;;
22907;SDS011;11620;50.050;8.690;2023-07-09T08:12:42;0.57;;;0.57;;
22907;SDS011;11620;50.050;8.690;2023-07-09T08:15:28;0.50;;;0.50;;
22907;SDS011;11620;50.050;8.690;2023-07-09T08:18:14;0.68;;;0.68;;
22907;SDS011;11620;50.050;8.690;2023-07-09T08:21:01;0.60;;;0.60;;
22907;SDS011;11620;50.050;8.690;2023-07-09T08:23:48;0.70;;;0.70;;
22907;SDS011;11620;50.050;8.690;2023-07-09T08:26:34;0.65;;;0.65;;
22907;SDS011;11620;50.050;8.690;2023-07-09T08:29:23;0.57;;;0.57;;
22907;SDS011;11620;50.050;8.690;2023-07-09T08:32:12;0.63;;;0.63;;
22907;SDS011;11620;50.050;8.690;2023-07-09T08:34:59;0.60;;;0.60;;
22907;SDS011;11620;50.050;8.690;2023-07-09T08:37:45;0.50;;;0.50;;
22907;SDS011;11620;50.050;8.690;2023-07-09T08:40:32;0.60;;;0.60;;
22907;SDS011;11620;50.050;8.690;2023-07-09T08:43:25;0.70;;;0.70;;
22907;SDS011;11620;50.050;8.690;2023-07-09T08:49:40;0.65;;;0.65;;
22907;SDS011;11620;50.050;8.690;2023-07-09T08:55:19;0.52;;;0.52;;
22907;SDS011;11620;50.050;8.690;2023-07-09T08:58:14;0.50;;;0.50;;
22907;SDS011;11620;50.050;8.690;2023-07-09T09:04:13;0.60;;;0.60;;
22907;SDS011;11620;50.050;8.690;2023-07-09T09:07:14;0.52;;;0.52;;
22907;SDS011;11620;50.050;8.690;2023-07-09T09:10:17;0.60;;;0.60;;
22907;SDS011;11620;50.050;8.690;2023-07-09T09:13:12;0.65;;;0.65;;
22907;SDS011;11620;50.050;8.690;2023-07-09T09:16:09;0.57;;;0.57;;
22907;SDS011;11620;50.050;8.690;2023-07-09T09:19:22;0.68;;;0.68;;
22907;SDS011;11620;50.050;8.690;2023-07-09T09:22:27;0.70;;;0.70;;
22907;SDS011;11620;50.050;8.690;2023-07-09T09:25:31;0.70;;;0.70;;
22907;SDS011;11620;50.050;8.690;2023-07-09T09:28:19;0.60;;;0.60;;
22907;SDS011;11620;50.050;8.690;2023-07-09T09:31:07;0.70;;;0.70;;
22907;SDS011;11620;50.050;8.690;2023-07-09T09:33:56;0.63;;;0.63;;
22907;SDS011;11620;50.050;8.690;2023-07-09T09:36:43;0.70;;;0.70;;
22907;SDS011;11620;50.050;8.690;2023-07-09T09:39:30;0.60;;;0.60;;
22907;SDS011;11620;50.050;8.690;2023-07-09T09:42:16;0.63;;;0.63;;
22907;SDS011;11620;50.050;8.690;2023-07-09T09:45:03;0.60;;;0.60;;
22907;SDS011;11620;50.050;8.690;2023-07-09T09:47:58;0.60;;;0.60;;
22907;SDS011;11620;50.050;8.690;2023-07-09T09:50:47;0.68;;;0.68;;
22907;SDS011;11620;50.050;8.690;2023-07-09T09:53:37;0.57;;;0.57;;
22907;SDS011;11620;50.050;8.690;2023-07-09T09:56:43;0.63;;;0.63;;
22907;SDS011;11620;50.050;8.690;2023-07-09T09:59:31;0.43;;;0.43;;
22907;SDS011;11620;50.050;8.690;2023-07-09T10:02:23;0.68;;;0.68;;
22907;SDS011;11620;50.050;8.690;2023-07-09T10:05:21;0.60;;;0.60;;
22907;SDS011;11620;50.050;8.690;2023-07-09T10:17:21;0.60;;;0.60;;
22907;SDS011;11620;50.050;8.690;2023-07-09T10:20:21;0.50;;;0.50;;
22907;SDS011;11620;50.050;8.690;2023-07-09T10:26:15;0.50;;;0.50;;
22907;SDS011;11620;50.050;8.690;2023-07-09T10:35:21;0.50;;;0.50;;
22907;SDS011;11620;50.050;8.690;2023-07-09T10:41:20;0.50;;;0.50;;
22907;SDS011;11620;50.050;8.690;2023-07-09T10:47:11;0.50;;;0.50;;
22907;SDS011;11620;50.050;8.690;2023-07-09T10:50:12;0.55;;;0.55;;
22907;SDS011;11620;50.050;8.690;2023-07-09T10:53:14;0.47;;;0.47;;
22907;SDS011;11620;50.050;8.690;2023-07-09T10:56:14;0.60;;;0.60;;
22907;SDS011;11620;50.050;8.690;2023-07-09T11:05:05;0.50;;;0.50;;
22907;SDS011;11620;50.050;8.690;2023-07-09T11:08:00;0.50;;;0.50;;
22907;SDS011;11620;50.050;8.690;2023-07-09T11:10:52;0.47;;;0.47;;
22907;SDS011;11620;50.050;8.690;2023-07-09T11:13:50;0.50;;;0.50;;
22907;SDS011;11620;50.050;8.690;2023-07-09T11:16:42;0.52;;;0.52;;
22907;SDS011;11620;50.050;8.690;2023-07-09T11:19:29;0.50;;;0.50;;
22907;SDS011;11620;50.050;8.690;2023-07-09T11:22:23;0.50;;;0.50;;
22907;SDS011;11620;50.050;8.690;2023-07-09T11:25:28;0.50;;;0.50;;
22907;SDS011;11620;50.050;8.690;2023-07-09T11:28:37;0.50;;;0.50;;
22907;SDS011;11620;50.050;8.690;2023-07-09T11:31:31;0.38;;;0.38;;
22907;SDS011;11620;50.050;8.690;2023-07-09T11:34:21;0.55;;;0.55;;
22907;SDS011;11620;50.050;8.690;2023-07-09T11:37:14;0.40;;;0.40;;
22907;SDS011;11620;50.050;8.690;2023-07-09T11:40:06;0.50;;;0.50;;
22907;SDS011;11620;50.050;8.690;2023-07-09T11:42:58;0.40;;;0.40;;
22907;SDS011;11620;50.050;8.690;2023-07-09T11:45:45;0.52;;;0.52;;
22907;SDS011;11620;50.050;8.690;2023-07-09T11:48:32;0.50;;;0.50;;
22907;SDS011;11620;50.050;8.690;2023-07-09T11:51:21;0.47;;;0.47;;
22907;SDS011;11620;50.050;8.690;2023-07-09T11:54:14;0.50;;;0.50;;
22907;SDS011;11620;50.050;8.690;2023-07-09T11:57:00;0.50;;;0.50;;
22907;SDS011;11620;50.050;8.690;2023-07-09T11:59:48;0.50;;;0.50;;
22907;SDS011;11620;50.050;8.690;2023-07-09T12:02:35;0.40;;;0.40;;
22907;SDS011;11620;50.050;8.690;2023-07-09T12:05:26;0.50;;;0.50;;
22907;SDS011;11620;50.050;8.690;2023-07-09T12:08:14;0.43;;;0.43;;
22907;SDS011;11620;50.050;8.690;2023-07-09T12:11:02;0.50;;;0.50;;
22907;SDS011;11620;50.050;8.690;2023-07-09T12:13:49;0.40;;;0.40;;
22907;SDS011;11620;50.050;8.690;2023-07-09T12:16:38;0.50;;;0.50;;
22907;SDS011;11620;50.050;8.690;2023-07-09T12:19:28;0.40;;;0.40;;
22907;SDS011;11620;50.050;8.690;2023-07-09T12:22:19;0.60;;;0.60;;
22907;SDS011;11620;50.050;8.690;2023-07-09T12:25:11;0.47;;;0.47;;
22907;SDS011;11620;50.050;8.690;2023-07-09T12:28:11;0.50;;;0.50;;
22907;SDS011;11620;50.050;8.690;2023-07-09T12:31:00;0.60;;;0.60;;
22907;SDS011;11620;50.050;8.690;2023-07-09T12:33:47;0.57;;;0.57;;
22907;SDS011;11620;50.050;8.690;2023-07-09T12:36:35;0.55;;;0.55;;
22907;SDS011;11620;50.050;8.690;2023-07-09T12:39:24;0.60;;;0.60;;
22907;SDS011;11620;50.050;8.690;2023-07-09T12:42:16;0.50;;;0.50;;
22907;SDS011;11620;50.050;8.690;2023-07-09T12:45:05;0.50;;;0.50;;
22907;SDS011;11620;50.050;8.690;2023-07-09T12:47:59;0.45;;;0.45;;
22907;SDS011;11620;50.050;8.690;2023-07-09T12:50:48;0.40;;;0.40;;
22907;SDS011;11620;50.050;8.690;2023-07-09T12:53:36;0.47;;;0.47;;
22907;SDS011;11620;50.050;8.690;2023-07-09T12:56:24;0.50;;;0.50;;
22907;SDS011;11620;50.050;8.690;2023-07-09T12:59:24;0.40;;;0.40;;
22907;SDS011;11620;50.050;8.690;2023-07-09T13:02:17;0.40;;;0.40;;
22907;SDS011;11620;50.050;8.690;2023-07-09T13:05:06;0.50;;;0.50;;
22907;SDS011;11620;50.050;8.690;2023-07-09T13:08:04;0.50;;;0.50;;
22907;SDS011;11620;50.050;8.690;2023-07-09T13:10:50;0.47;;;0.47;;
22907;SDS011;11620;50.050;8.690;2023-07-09T13:13:37;0.40;;;0.40;;
22907;SDS011;11620;50.050;8.690;2023-07-09T13:16:24;0.50;;;0.50;;
22907;SDS011;11620;50.050;8.690;2023-07-09T13:19:10;0.40;;;0.40;;
22907;SDS011;11620;50.050;8.690;2023-07-09T13:21:57;0.35;;;0.35;;
22907;SDS011;11620;50.050;8.690;2023-07-09T13:24:45;0.50;;;0.50;;
22907;SDS011;11620;50.050;8.690;2023-07-09T13:27:31;0.50;;;0.50;;
22907;SDS011;11620;50.050;8.690;2023-07-09T13:30:18;0.40;;;0.40;;
22907;SDS011;11620;50.050;8.690;2023-07-09T13:33:07;0.50;;;0.50;;
22907;SDS011;11620;50.050;8.690;2023-07-09T13:35:55;0.38;;;0.38;;
22907;SDS011;11620;50.050;8.690;2023-07-09T13:38:42;0.40;;;0.40;;
22907;SDS011;11620;50.050;8.690;2023-07-09T13:41:28;0.60;;;0.60;;
22907;SDS011;11620;50.050;8.690;2023-07-09T13:44:19;0.50;;;0.50;;
22907;SDS011;11620;50.050;8.690;2023-07-09T13:47:14;0.40;;;0.40;;
22907;SDS011;11620;50.050;8.690;2023-07-09T13:50:04;0.45;;;0.45;;
22907;SDS011;11620;50.050;8.690;2023-07-09T13:52:50;0.50;;;0.50;;
22907;SDS011;11620;50.050;8.690;2023-07-09T13:55:37;0.50;;;0.50;;
22907;SDS011;11620;50.050;8.690;2023-07-09T13:58:24;0.50;;;0.50;;
22907;SDS011;11620;50.050;8.690;2023-07-09T14:01:15;0.50;;;0.50;;
22907;SDS011;11620;50.050;8.690;2023-07-09T14:04:08;0.47;;;0.47;;
22907;SDS011;11620;50.050;8.690;2023-07-09T14:06:57;0.50;;;0.50;;
22907;SDS011;11620;50.050;8.690;2023-07-09T14:09:43;0.50;;;0.50;;
22907;SDS011;11620;50.050;8.690;2023-07-09T14:12:30;0.50;;;0.50;;
22907;SDS011;11620;50.050;8.690;2023-07-09T14:15:18;0.50;;;0.50;;
22907;SDS011;11620;50.050;8.690;2023-07-09T14:18:11;0.40;;;0.40;;
22907;SDS011;11620;50.050;8.690;2023-07-09T14:20:59;0.40;;;0.40;;
22907;SDS011;11620;50.050;8.690;2023-07-09T14:23:45;0.40;;;0.40;;
22907;SDS011;11620;50.050;8.690;2023-07-09T14:26:31;0.40;;;0.40;;
22907;SDS011;11620;50.050;8.690;2023-07-09T14:29:18;0.35;;;0.35;;
22907;SDS011;11620;50.050;8.690;2023-07-09T14:32:04;0.30;;;0.30;;
22907;SDS011;11620;50.050;8.690;2023-07-09T14:35:25;0.43;;;0.43;;
22907;SDS011;11620;50.050;8.690;2023-07-09T14:38:19;0.30;;;0.30;;
22907;SDS011;11620;50.050;8.690;2023-07-09T14:41:17;0.40;;;0.40;;
22907;SDS011;11620;50.050;8.690;2023-07-09T14:44:26;0.50;;;0.50;;
22907;SDS011;11620;50.050;8.690;2023-07-09T14:47:18;0.40;;;0.40;;
22907;SDS011;11620;50.050;8.690;2023-07-09T14:50:06;0.45;;;0.45;;
22907;SDS011;11620;50.050;8.690;2023-07-09T14:52:53;0.40;;;0.40;;
22907;SDS011;11620;50.050;8.690;2023-07-09T14:55:39;0.40;;;0.40;;
22907;SDS011;11620;50.050;8.690;2023-07-09T14:58:26;0.40;;;0.40;;
22907;SDS011;11620;50.050;8.690;2023-07-09T15:01:13;0.32;;;0.32;;
22907;SDS011;11620;50.050;8.690;2023-07-09T15:04:02;0.40;;;0.40;;
22907;SDS011;11620;50.050;8.690;2023-07-09T15:07:11;0.30;;;0.30;;
22907;SDS011;11620;50.050;8.690;2023-07-09T15:09:59;0.50;;;0.50;;
22907;SDS011;11620;50.050;8.690;2023-07-09T15:12:46;0.40;;;0.40;;
22907;SDS011;11620;50.050;8.690;2023-07-09T15:15:33;0.40;;;0.40;;
22907;SDS011;11620;50.050;8.690;2023-07-09T15:18:19;0.40;;;0.40;;
22907;SDS011;11620;50.050;8.690;2023-07-09T15:21:06;0.40;;;0.40;;
22907;SDS011;11620;50.050;8.690;2023-07-09T15:23:55;0.40;;;0.40;;
22907;SDS011;11620;50.050;8.690;2023-07-09T15:26:41;0.30;;;0.30;;
22907;SDS011;11620;50.050;8.690;2023-07-09T15:29:28;0.30;;;0.30;;
22907;SDS011;11620;50.050;8.690;2023-07-09T15:32:14;0.50;;;0.50;;
22907;SDS011;11620;50.050;8.690;2023-07-09T15:35:01;0.40;;;0.40;;
22907;SDS011;11620;50.050;8.690;2023-07-09T15:37:48;0.40;;;0.40;;
22907;SDS011;11620;50.050;8.690;2023-07-09T15:40:35;0.40;;;0.40;;
22907;SDS011;11620;50.050;8.690;2023-07-09T15:43:21;0.30;;;0.30;;
22907;SDS011;11620;50.050;8.690;2023-07-09T15:46:09;0.38;;;0.38;;
22907;SDS011;11620;50.050;8.690;2023-07-09T15:49:04;0.35;;;0.35;;
22907;SDS011;11620;50.050;8.690;2023-07-09T15:51:51;0.40;;;0.40;;
22907;SDS011;11620;50.050;8.690;2023-07-09T15:54:37;0.30;;;0.30;;
22907;SDS011;11620;50.050;8.690;2023-07-09T15:57:24;0.30;;;0.30;;
22907;SDS011;11620;50.050;8.690;2023-07-09T16:00:18;0.25;;;0.25;;
22907;SDS011;11620;50.050;8.690;2023-07-09T16:03:05;0.20;;;0.20;;
22907;SDS011;11620;50.050;8.690;2023-07-09T16:05:54;0.30;;;0.30;;
22907;SDS011;11620;50.050;8.690;2023-07-09T16:08:40;0.40;;;0.40;;
22907;SDS011;11620;50.050;8.690;2023-07-09T16:11:27;0.40;;;0.40;;
22907;SDS011;11620;50.050;8.690;2023-07-09T16:17:26;0.40;;;0.40;;
22907;SDS011;11620;50.050;8.690;2023-07-09T16:20:13;0.32;;;0.32;;
22907;SDS011;11620;50.050;8.690;2023-07-09T16:23:01;0.30;;;0.30;;
22907;SDS011;11620;50.050;8.690;2023-07-09T16:25:48;0.32;;;0.32;;
22907;SDS011;11620;50.050;8.690;2023-07-09T16:28:35;0.40;;;0.40;;
22907;SDS011;11620;50.050;8.690;2023-07-09T16:31:21;0.40;;;0.40;;
22907;SDS011;11620;50.050;8.690;2023-07-09T16:34:08;0.30;;;0.30;;
22907;SDS011;11620;50.050;8.690;2023-07-09T16:36:54;0.30;;;0.30;;
22907;SDS011;11620;50.050;8.690;2023-07-09T16:39:41;0.32;;;0.32;;
22907;SDS011;11620;50.050;8.690;2023-07-09T16:42:28;0.30;;;0.30;;
22907;SDS011;11620;50.050;8.690;2023-07-09T16:45:16;0.30;;;0.30;;
22907;SDS011;11620;50.050;8.690;2023-07-09T16:48:08;0.40;;;0.40;;
22907;SDS011;11620;50.050;8.690;2023-07-09T16:51:07;0.50;;;0.50;;
22907;SDS011;11620;50.050;8.690;2023-07-09T16:53:54;0.40;;;0.40;;
22907;SDS011;11620;50.050;8.690;2023-07-09T16:56:41;0.30;;;0.30;;
22907;SDS011;11620;50.050;8.690;2023-07-09T16:59:27;0.30;;;0.30;;
22907;SDS011;11620;50.050;8.690;2023-07-09T17:02:27;0.30;;;0.30;;
22907;SDS011;11620;50.050;8.690;2023-07-09T17:05:15;0.35;;;0.35;;
22907;SDS011;11620;50.050;8.690;2023-07-09T17:08:02;0.40;;;0.40;;
22907;SDS011;11620;50.050;8.690;2023-07-09T17:10:48;0.20;;;0.20;;
22907;SDS011;11620;50.050;8.690;2023-07-09T17:13:37;0.30;;;0.30;;
22907;SDS011;11620;50.050;8.690;2023-07-09T17:16:25;0.30;;;0.30;;
22907;SDS011;11620;50.050;8.690;2023-07-09T17:19:11;0.30;;;0.30;;
22907;SDS011;11620;50.050;8.690;2023-07-09T17:21:58;0.20;;;0.20;;
22907;SDS011;11620;50.050;8.690;2023-07-09T17:24:46;0.30;;;0.30;;
22907;SDS011;11620;50.050;8.690;2023-07-09T17:27:32;0.38;;;0.38;;
22907;SDS011;11620;50.050;8.690;2023-07-09T17:30:19;0.30;;;0.30;;
22907;SDS011;11620;50.050;8.690;2023-07-09T17:33:07;0.40;;;0.40;;
22907;SDS011;11620;50.050;8.690;2023-07-09T17:35:54;0.32;;;0.32;;
22907;SDS011;11620;50.050;8.690;2023-07-09T17:38:41;0.40;;;0.40;;
22907;SDS011;11620;50.050;8.690;2023-07-09T17:41:28;0.30;;;0.30;;
22907;SDS011;11620;50.050;8.690;2023-07-09T17:44:15;0.40;;;0.40;;